LFOT/TUF METAR and TAF weather

Enter ICAO airport designator
Station Type Date Time Source
LFOT METAR 2022/09/26 10:00 UTC NOAA

LFOT 261000Z AUTO 24013KT 210V270 9999 FEW037 BKN050 BKN072 15/06 Q1010 TEMPO 25015G30KT 4000 -RA BKN040TCU


Station Type Date Time Source
LFOT Decoded METAR 2022/09/26 10:00 UTC NOAA

Tours, France (LFOT) 47-27N 000-43E 112M
Sep 26, 2022 - 06:00 AM EDT / 2022.09.26 1000 UTC
Wind: from the WSW (240 degrees) at 15 MPH (13 KT) (direction variable):0
Visibility: greater than 7 mile(s):0
Sky conditions: mostly cloudy
Weather: Towering cumulus clouds observed
Temperature: 59 F (15 C)
Dew Point: 42 F (6 C)
Relative Humidity: 54%
Pressure (altimeter): 29.83 in. Hg (1010 hPa)
ob: LFOT 261000Z AUTO 24013KT 210V270 9999 FEW037 BKN050 BKN072 15/06 Q1010 TEMPO 25015G30KT 4000 -RA BKN040TCU
cycle: 10

Station Type Date Time Source
LFOT TAF 2022/09/26 06:21 UTC NOAA

TAF TAF LFOT 260500Z 2606/2706 VRB05KT CAVOK
BECMG 2606/2609 23010KT
TEMPO 2609/2611 25015G25KT -RA PROB40
TEMPO 2611/2617 25015G30KT 4000 -RA BKN040TCU PROB40
TEMPO 2614/2617 2000 RA BKN010 BKN025 SCT055CB
BECMG 2617/2619 29010KT PROB30
TEMPO 2619/2622 -SHRA SCT012 BKN035 PROB30
TEMPO 2622/2624 BKN009

Example: see airport list